sensor_id;sensor_type;location;lat;lon;timestamp;pressure;altitude;pressure_sealevel;temperature
64960;BMP180;51487;52.266;10.542;2022-08-19T00:00:33;100242.00;;;20.20
64960;BMP180;51487;52.266;10.542;2022-08-19T00:02:59;100234.00;;;20.10
64960;BMP180;51487;52.266;10.542;2022-08-19T00:05:25;100237.00;;;20.10
64960;BMP180;51487;52.266;10.542;2022-08-19T00:07:51;100232.00;;;20.10
64960;BMP180;51487;52.266;10.542;2022-08-19T00:10:18;100249.00;;;20.00
64960;BMP180;51487;52.266;10.542;2022-08-19T00:12:44;100229.00;;;20.00
64960;BMP180;51487;52.266;10.542;2022-08-19T00:15:13;100230.00;;;20.10
64960;BMP180;51487;52.266;10.542;2022-08-19T00:17:43;100236.00;;;20.00
64960;BMP180;51487;52.266;10.542;2022-08-19T00:20:12;100244.00;;;19.90
64960;BMP180;51487;52.266;10.542;2022-08-19T00:22:42;100248.00;;;19.90
64960;BMP180;51487;52.266;10.542;2022-08-19T00:25:09;100243.00;;;19.90
64960;BMP180;51487;52.266;10.542;2022-08-19T00:27:35;100237.00;;;19.90
64960;BMP180;51487;52.266;10.542;2022-08-19T00:30:01;100242.00;;;19.80
64960;BMP180;51487;52.266;10.542;2022-08-19T00:32:29;100245.00;;;19.80
64960;BMP180;51487;52.266;10.542;2022-08-19T00:34:55;100243.00;;;19.70
64960;BMP180;51487;52.266;10.542;2022-08-19T00:37:23;100244.00;;;19.70
64960;BMP180;51487;52.266;10.542;2022-08-19T00:39:51;100249.00;;;19.70
64960;BMP180;51487;52.266;10.542;2022-08-19T00:42:18;100259.00;;;19.70
64960;BMP180;51487;52.266;10.542;2022-08-19T00:44:45;100255.00;;;19.60
64960;BMP180;51487;52.266;10.542;2022-08-19T00:47:11;100247.00;;;19.70
64960;BMP180;51487;52.266;10.542;2022-08-19T00:49:53;100248.00;;;19.70
64960;BMP180;51487;52.266;10.542;2022-08-19T00:52:49;100234.00;;;19.70
64960;BMP180;51487;52.266;10.542;2022-08-19T00:55:20;100240.00;;;19.80
64960;BMP180;51487;52.266;10.542;2022-08-19T00:57:52;100236.00;;;19.80
64960;BMP180;51487;52.266;10.542;2022-08-19T01:00:23;100229.00;;;19.70
64960;BMP180;51487;52.266;10.542;2022-08-19T01:02:51;100232.00;;;19.60
64960;BMP180;51487;52.266;10.542;2022-08-19T01:05:22;100223.00;;;19.50
64960;BMP180;51487;52.266;10.542;2022-08-19T01:07:53;100226.00;;;19.40
64960;BMP180;51487;52.266;10.542;2022-08-19T01:10:24;100224.00;;;19.40
64960;BMP180;51487;52.266;10.542;2022-08-19T01:12:52;100221.00;;;19.40
64960;BMP180;51487;52.266;10.542;2022-08-19T01:15:23;100226.00;;;19.50
64960;BMP180;51487;52.266;10.542;2022-08-19T01:17:55;100233.00;;;19.50
64960;BMP180;51487;52.266;10.542;2022-08-19T01:20:24;100229.00;;;19.40
64960;BMP180;51487;52.266;10.542;2022-08-19T01:22:56;100234.00;;;19.30
64960;BMP180;51487;52.266;10.542;2022-08-19T01:25:27;100219.00;;;19.30
64960;BMP180;51487;52.266;10.542;2022-08-19T01:28:04;100217.00;;;19.40
64960;BMP180;51487;52.266;10.542;2022-08-19T01:30:33;100228.00;;;19.30
64960;BMP180;51487;52.266;10.542;2022-08-19T01:33:00;100221.00;;;19.30
64960;BMP180;51487;52.266;10.542;2022-08-19T01:35:29;100229.00;;;19.20
64960;BMP180;51487;52.266;10.542;2022-08-19T01:37:59;100224.00;;;19.10
64960;BMP180;51487;52.266;10.542;2022-08-19T01:40:32;100227.00;;;19.10
64960;BMP180;51487;52.266;10.542;2022-08-19T01:43:01;100225.00;;;19.10
64960;BMP180;51487;52.266;10.542;2022-08-19T01:45:30;100223.00;;;19.00
64960;BMP180;51487;52.266;10.542;2022-08-19T01:47:58;100215.00;;;19.00
64960;BMP180;51487;52.266;10.542;2022-08-19T01:50:24;100209.00;;;18.90
64960;BMP180;51487;52.266;10.542;2022-08-19T01:52:51;100201.00;;;18.90
64960;BMP180;51487;52.266;10.542;2022-08-19T01:55:19;100192.00;;;18.90
64960;BMP180;51487;52.266;10.542;2022-08-19T01:57:52;100198.00;;;18.90
64960;BMP180;51487;52.266;10.542;2022-08-19T02:00:23;100203.00;;;18.90
64960;BMP180;51487;52.266;10.542;2022-08-19T02:02:50;100204.00;;;19.00
64960;BMP180;51487;52.266;10.542;2022-08-19T02:05:16;100199.00;;;18.80
64960;BMP180;51487;52.266;10.542;2022-08-19T02:07:43;100194.00;;;18.90
64960;BMP180;51487;52.266;10.542;2022-08-19T02:10:14;100200.00;;;18.90
64960;BMP180;51487;52.266;10.542;2022-08-19T02:12:42;100205.00;;;18.90
64960;BMP180;51487;52.266;10.542;2022-08-19T02:15:08;100207.00;;;19.00
64960;BMP180;51487;52.266;10.542;2022-08-19T02:17:34;100205.00;;;19.10
64960;BMP180;51487;52.266;10.542;2022-08-19T02:20:00;100207.00;;;18.90
64960;BMP180;51487;52.266;10.542;2022-08-19T02:22:26;100200.00;;;19.00
64960;BMP180;51487;52.266;10.542;2022-08-19T02:24:53;100205.00;;;18.80
64960;BMP180;51487;52.266;10.542;2022-08-19T02:27:20;100204.00;;;18.90
64960;BMP180;51487;52.266;10.542;2022-08-19T02:29:48;100200.00;;;18.90
64960;BMP180;51487;52.266;10.542;2022-08-19T02:32:15;100202.00;;;19.00
64960;BMP180;51487;52.266;10.542;2022-08-19T02:34:42;100204.00;;;18.90
64960;BMP180;51487;52.266;10.542;2022-08-19T02:37:08;100199.00;;;18.80
64960;BMP180;51487;52.266;10.542;2022-08-19T02:39:53;100193.00;;;18.60
64960;BMP180;51487;52.266;10.542;2022-08-19T02:42:19;100193.00;;;18.60
64960;BMP180;51487;52.266;10.542;2022-08-19T02:44:47;100185.00;;;18.50
64960;BMP180;51487;52.266;10.542;2022-08-19T02:47:13;100190.00;;;18.50
64960;BMP180;51487;52.266;10.542;2022-08-19T02:49:40;100186.00;;;18.40
64960;BMP180;51487;52.266;10.542;2022-08-19T02:52:06;100189.00;;;18.40
64960;BMP180;51487;52.266;10.542;2022-08-19T02:54:32;100192.00;;;18.40
64960;BMP180;51487;52.266;10.542;2022-08-19T02:56:57;100184.00;;;18.30
64960;BMP180;51487;52.266;10.542;2022-08-19T02:59:23;100184.00;;;18.40
64960;BMP180;51487;52.266;10.542;2022-08-19T03:01:51;100187.00;;;18.50
64960;BMP180;51487;52.266;10.542;2022-08-19T03:04:17;100196.00;;;18.50
64960;BMP180;51487;52.266;10.542;2022-08-19T03:06:45;100199.00;;;18.50
64960;BMP180;51487;52.266;10.542;2022-08-19T03:09:12;100188.00;;;18.40
64960;BMP180;51487;52.266;10.542;2022-08-19T03:11:39;100195.00;;;18.40
64960;BMP180;51487;52.266;10.542;2022-08-19T03:14:07;100191.00;;;18.30
64960;BMP180;51487;52.266;10.542;2022-08-19T03:16:41;100205.00;;;18.40
64960;BMP180;51487;52.266;10.542;2022-08-19T03:19:08;100214.00;;;18.30
64960;BMP180;51487;52.266;10.542;2022-08-19T03:21:34;100209.00;;;18.30
64960;BMP180;51487;52.266;10.542;2022-08-19T03:24:03;100215.00;;;18.20
64960;BMP180;51487;52.266;10.542;2022-08-19T03:26:31;100212.00;;;18.20
64960;BMP180;51487;52.266;10.542;2022-08-19T03:28:56;100213.00;;;18.10
64960;BMP180;51487;52.266;10.542;2022-08-19T03:31:26;100208.00;;;18.20
64960;BMP180;51487;52.266;10.542;2022-08-19T03:33:52;100214.00;;;18.20
64960;BMP180;51487;52.266;10.542;2022-08-19T03:36:21;100210.00;;;18.20
64960;BMP180;51487;52.266;10.542;2022-08-19T03:38:53;100215.00;;;18.20
64960;BMP180;51487;52.266;10.542;2022-08-19T03:41:24;100227.00;;;18.20
64960;BMP180;51487;52.266;10.542;2022-08-19T03:43:56;100230.00;;;18.20
64960;BMP180;51487;52.266;10.542;2022-08-19T03:46:26;100220.00;;;18.20
64960;BMP180;51487;52.266;10.542;2022-08-19T03:48:55;100216.00;;;18.10
64960;BMP180;51487;52.266;10.542;2022-08-19T03:51:25;100215.00;;;18.10
64960;BMP180;51487;52.266;10.542;2022-08-19T03:53:54;100224.00;;;18.00
64960;BMP180;51487;52.266;10.542;2022-08-19T03:56:21;100226.00;;;18.00
64960;BMP180;51487;52.266;10.542;2022-08-19T03:58:47;100213.00;;;18.00
64960;BMP180;51487;52.266;10.542;2022-08-19T04:01:16;100217.00;;;18.00
64960;BMP180;51487;52.266;10.542;2022-08-19T04:03:44;100211.00;;;18.00
64960;BMP180;51487;52.266;10.542;2022-08-19T04:06:21;100214.00;;;17.70
64960;BMP180;51487;52.266;10.542;2022-08-19T04:08:51;100209.00;;;17.80
64960;BMP180;51487;52.266;10.542;2022-08-19T04:11:23;100213.00;;;17.90
64960;BMP180;51487;52.266;10.542;2022-08-19T04:13:52;100217.00;;;17.70
64960;BMP180;51487;52.266;10.542;2022-08-19T04:16:21;100224.00;;;17.70
64960;BMP180;51487;52.266;10.542;2022-08-19T04:18:48;100226.00;;;17.70
64960;BMP180;51487;52.266;10.542;2022-08-19T04:21:19;100234.00;;;17.60
64960;BMP180;51487;52.266;10.542;2022-08-19T04:23:47;100235.00;;;17.70
64960;BMP180;51487;52.266;10.542;2022-08-19T04:26:23;100237.00;;;17.70
64960;BMP180;51487;52.266;10.542;2022-08-19T04:28:50;100233.00;;;17.70
64960;BMP180;51487;52.266;10.542;2022-08-19T04:31:27;100237.00;;;17.70
64960;BMP180;51487;52.266;10.542;2022-08-19T04:33:59;100232.00;;;17.80
64960;BMP180;51487;52.266;10.542;2022-08-19T04:36:29;100230.00;;;17.80
64960;BMP180;51487;52.266;10.542;2022-08-19T04:38:59;100230.00;;;17.80
64960;BMP180;51487;52.266;10.542;2022-08-19T04:41:28;100242.00;;;17.70
64960;BMP180;51487;52.266;10.542;2022-08-19T04:44:12;100247.00;;;17.60
64960;BMP180;51487;52.266;10.542;2022-08-19T04:46:39;100242.00;;;17.70
64960;BMP180;51487;52.266;10.542;2022-08-19T04:49:07;100245.00;;;17.80
64960;BMP180;51487;52.266;10.542;2022-08-19T04:51:34;100251.00;;;17.90
64960;BMP180;51487;52.266;10.542;2022-08-19T04:54:02;100244.00;;;17.80
64960;BMP180;51487;52.266;10.542;2022-08-19T04:56:28;100238.00;;;17.80
64960;BMP180;51487;52.266;10.542;2022-08-19T04:58:55;100241.00;;;17.70
64960;BMP180;51487;52.266;10.542;2022-08-19T05:01:24;100241.00;;;17.70
64960;BMP180;51487;52.266;10.542;2022-08-19T05:03:53;100229.00;;;17.60
64960;BMP180;51487;52.266;10.542;2022-08-19T05:06:21;100239.00;;;17.40
64960;BMP180;51487;52.266;10.542;2022-08-19T05:08:49;100231.00;;;17.50
64960;BMP180;51487;52.266;10.542;2022-08-19T05:11:21;100233.00;;;17.50
64960;BMP180;51487;52.266;10.542;2022-08-19T05:13:49;100219.00;;;17.30
64960;BMP180;51487;52.266;10.542;2022-08-19T05:16:17;100217.00;;;17.30
64960;BMP180;51487;52.266;10.542;2022-08-19T05:18:45;100211.00;;;17.40
64960;BMP180;51487;52.266;10.542;2022-08-19T05:21:30;100220.00;;;17.50
64960;BMP180;51487;52.266;10.542;2022-08-19T05:24:16;100223.00;;;17.40
64960;BMP180;51487;52.266;10.542;2022-08-19T05:26:45;100233.00;;;17.30
64960;BMP180;51487;52.266;10.542;2022-08-19T05:29:14;100226.00;;;17.40
64960;BMP180;51487;52.266;10.542;2022-08-19T05:31:43;100221.00;;;17.40
64960;BMP180;51487;52.266;10.542;2022-08-19T05:34:09;100223.00;;;17.50
64960;BMP180;51487;52.266;10.542;2022-08-19T05:36:39;100220.00;;;17.60
64960;BMP180;51487;52.266;10.542;2022-08-19T05:39:08;100225.00;;;17.60
64960;BMP180;51487;52.266;10.542;2022-08-19T05:41:35;100227.00;;;17.70
64960;BMP180;51487;52.266;10.542;2022-08-19T05:44:03;100239.00;;;17.60
64960;BMP180;51487;52.266;10.542;2022-08-19T05:46:35;100237.00;;;17.40
64960;BMP180;51487;52.266;10.542;2022-08-19T05:49:07;100238.00;;;17.50
64960;BMP180;51487;52.266;10.542;2022-08-19T05:51:34;100239.00;;;17.40
64960;BMP180;51487;52.266;10.542;2022-08-19T05:54:03;100245.00;;;17.40
64960;BMP180;51487;52.266;10.542;2022-08-19T05:56:31;100234.00;;;17.60
64960;BMP180;51487;52.266;10.542;2022-08-19T05:58:58;100240.00;;;17.50
64960;BMP180;51487;52.266;10.542;2022-08-19T06:01:24;100240.00;;;17.60
64960;BMP180;51487;52.266;10.542;2022-08-19T06:03:51;100238.00;;;17.70
64960;BMP180;51487;52.266;10.542;2022-08-19T06:06:17;100237.00;;;17.70
64960;BMP180;51487;52.266;10.542;2022-08-19T06:08:43;100238.00;;;17.60
64960;BMP180;51487;52.266;10.542;2022-08-19T06:13:48;100243.00;;;17.70
64960;BMP180;51487;52.266;10.542;2022-08-19T06:16:18;100249.00;;;17.60
64960;BMP180;51487;52.266;10.542;2022-08-19T06:18:50;100256.00;;;17.70
64960;BMP180;51487;52.266;10.542;2022-08-19T06:21:24;100254.00;;;17.70
64960;BMP180;51487;52.266;10.542;2022-08-19T06:23:52;100261.00;;;17.70
64960;BMP180;51487;52.266;10.542;2022-08-19T06:26:19;100260.00;;;17.70
64960;BMP180;51487;52.266;10.542;2022-08-19T06:28:46;100264.00;;;17.70
64960;BMP180;51487;52.266;10.542;2022-08-19T06:31:18;100273.00;;;17.50
64960;BMP180;51487;52.266;10.542;2022-08-19T06:33:49;100263.00;;;17.50
64960;BMP180;51487;52.266;10.542;2022-08-19T06:36:27;100268.00;;;17.50
64960;BMP180;51487;52.266;10.542;2022-08-19T06:39:02;100277.00;;;17.50
64960;BMP180;51487;52.266;10.542;2022-08-19T06:41:34;100284.00;;;17.40
64960;BMP180;51487;52.266;10.542;2022-08-19T06:44:02;100287.00;;;17.60
64960;BMP180;51487;52.266;10.542;2022-08-19T06:46:28;100285.00;;;17.60
64960;BMP180;51487;52.266;10.542;2022-08-19T06:48:54;100286.00;;;17.60
64960;BMP180;51487;52.266;10.542;2022-08-19T06:51:21;100289.00;;;17.60
64960;BMP180;51487;52.266;10.542;2022-08-19T06:53:50;100288.00;;;17.70
64960;BMP180;51487;52.266;10.542;2022-08-19T06:56:20;100282.00;;;17.80
64960;BMP180;51487;52.266;10.542;2022-08-19T06:58:48;100293.00;;;17.90
64960;BMP180;51487;52.266;10.542;2022-08-19T07:01:16;100298.00;;;17.90
64960;BMP180;51487;52.266;10.542;2022-08-19T07:03:42;100310.00;;;17.80
64960;BMP180;51487;52.266;10.542;2022-08-19T07:06:11;100303.00;;;17.70
64960;BMP180;51487;52.266;10.542;2022-08-19T07:08:43;100295.00;;;17.70
64960;BMP180;51487;52.266;10.542;2022-08-19T07:11:12;100305.00;;;17.70
64960;BMP180;51487;52.266;10.542;2022-08-19T07:13:40;100316.00;;;17.90
64960;BMP180;51487;52.266;10.542;2022-08-19T07:16:12;100320.00;;;17.90
64960;BMP180;51487;52.266;10.542;2022-08-19T07:18:40;100320.00;;;17.80
64960;BMP180;51487;52.266;10.542;2022-08-19T07:21:18;100324.00;;;17.90
64960;BMP180;51487;52.266;10.542;2022-08-19T07:23:48;100331.00;;;18.00
64960;BMP180;51487;52.266;10.542;2022-08-19T07:26:21;100336.00;;;17.80
64960;BMP180;51487;52.266;10.542;2022-08-19T07:28:52;100326.00;;;17.70
64960;BMP180;51487;52.266;10.542;2022-08-19T07:31:21;100334.00;;;17.70
64960;BMP180;51487;52.266;10.542;2022-08-19T07:33:50;100343.00;;;17.70
64960;BMP180;51487;52.266;10.542;2022-08-19T07:36:21;100342.00;;;17.80
64960;BMP180;51487;52.266;10.542;2022-08-19T07:38:53;100338.00;;;17.90
64960;BMP180;51487;52.266;10.542;2022-08-19T07:41:23;100343.00;;;17.80
64960;BMP180;51487;52.266;10.542;2022-08-19T07:43:50;100354.00;;;17.90
64960;BMP180;51487;52.266;10.542;2022-08-19T07:46:17;100358.00;;;17.80
64960;BMP180;51487;52.266;10.542;2022-08-19T07:48:46;100366.00;;;17.80
64960;BMP180;51487;52.266;10.542;2022-08-19T07:51:15;100366.00;;;17.90
64960;BMP180;51487;52.266;10.542;2022-08-19T07:53:44;100368.00;;;17.90
64960;BMP180;51487;52.266;10.542;2022-08-19T07:56:12;100373.00;;;18.00
64960;BMP180;51487;52.266;10.542;2022-08-19T07:58:41;100377.00;;;18.10
64960;BMP180;51487;52.266;10.542;2022-08-19T08:01:16;100369.00;;;18.20
64960;BMP180;51487;52.266;10.542;2022-08-19T08:03:45;100368.00;;;18.20
64960;BMP180;51487;52.266;10.542;2022-08-19T08:06:30;100374.00;;;18.10
64960;BMP180;51487;52.266;10.542;2022-08-19T08:09:18;100379.00;;;18.00
64960;BMP180;51487;52.266;10.542;2022-08-19T08:12:08;100372.00;;;18.20
64960;BMP180;51487;52.266;10.542;2022-08-19T08:14:48;100375.00;;;18.20
64960;BMP180;51487;52.266;10.542;2022-08-19T08:17:19;100376.00;;;18.10
64960;BMP180;51487;52.266;10.542;2022-08-19T08:19:47;100372.00;;;18.20
64960;BMP180;51487;52.266;10.542;2022-08-19T08:22:16;100367.00;;;18.20
64960;BMP180;51487;52.266;10.542;2022-08-19T08:25:07;100363.00;;;18.30
64960;BMP180;51487;52.266;10.542;2022-08-19T08:27:36;100359.00;;;18.40
64960;BMP180;51487;52.266;10.542;2022-08-19T08:30:06;100356.00;;;18.20
64960;BMP180;51487;52.266;10.542;2022-08-19T08:32:38;100355.00;;;18.10
64960;BMP180;51487;52.266;10.542;2022-08-19T08:35:07;100361.00;;;18.10
64960;BMP180;51487;52.266;10.542;2022-08-19T08:37:35;100359.00;;;18.20
64960;BMP180;51487;52.266;10.542;2022-08-19T08:40:29;100365.00;;;18.60
64960;BMP180;51487;52.266;10.542;2022-08-19T08:43:28;100358.00;;;18.60
64960;BMP180;51487;52.266;10.542;2022-08-19T08:46:15;100358.00;;;18.50
64960;BMP180;51487;52.266;10.542;2022-08-19T08:48:49;100361.00;;;18.40
64960;BMP180;51487;52.266;10.542;2022-08-19T08:51:43;100372.00;;;18.60
64960;BMP180;51487;52.266;10.542;2022-08-19T08:54:14;100371.00;;;18.60
64960;BMP180;51487;52.266;10.542;2022-08-19T08:56:45;100363.00;;;18.50
64960;BMP180;51487;52.266;10.542;2022-08-19T09:01:53;100363.00;;;18.70
64960;BMP180;51487;52.266;10.542;2022-08-19T09:04:19;100370.00;;;18.80
64960;BMP180;51487;52.266;10.542;2022-08-19T09:07:02;100355.00;;;18.90
64960;BMP180;51487;52.266;10.542;2022-08-19T09:09:54;100363.00;;;19.20
64960;BMP180;51487;52.266;10.542;2022-08-19T09:15:24;100359.00;;;19.60
64960;BMP180;51487;52.266;10.542;2022-08-19T09:17:54;100351.00;;;19.70
64960;BMP180;51487;52.266;10.542;2022-08-19T09:20:21;100369.00;;;19.50
64960;BMP180;51487;52.266;10.542;2022-08-19T09:22:48;100367.00;;;19.70
64960;BMP180;51487;52.266;10.542;2022-08-19T09:25:20;100369.00;;;19.90
64960;BMP180;51487;52.266;10.542;2022-08-19T09:27:51;100375.00;;;19.80
64960;BMP180;51487;52.266;10.542;2022-08-19T09:30:26;100380.00;;;20.00
64960;BMP180;51487;52.266;10.542;2022-08-19T09:32:53;100378.00;;;19.70
64960;BMP180;51487;52.266;10.542;2022-08-19T09:35:22;100381.00;;;19.90
64960;BMP180;51487;52.266;10.542;2022-08-19T09:37:50;100385.00;;;19.80
64960;BMP180;51487;52.266;10.542;2022-08-19T09:40:17;100387.00;;;19.70
64960;BMP180;51487;52.266;10.542;2022-08-19T09:42:44;100395.00;;;19.60
64960;BMP180;51487;52.266;10.542;2022-08-19T09:45:12;100393.00;;;19.70
64960;BMP180;51487;52.266;10.542;2022-08-19T09:47:39;100385.00;;;19.60
64960;BMP180;51487;52.266;10.542;2022-08-19T09:50:06;100388.00;;;19.90
64960;BMP180;51487;52.266;10.542;2022-08-19T09:52:34;100383.00;;;19.80
64960;BMP180;51487;52.266;10.542;2022-08-19T09:55:05;100386.00;;;19.90
64960;BMP180;51487;52.266;10.542;2022-08-19T09:57:32;100382.00;;;20.00
64960;BMP180;51487;52.266;10.542;2022-08-19T09:59:59;100392.00;;;20.10
64960;BMP180;51487;52.266;10.542;2022-08-19T10:02:24;100392.00;;;20.20
64960;BMP180;51487;52.266;10.542;2022-08-19T10:04:51;100391.00;;;20.10
64960;BMP180;51487;52.266;10.542;2022-08-19T10:07:36;100387.00;;;19.60
64960;BMP180;51487;52.266;10.542;2022-08-19T10:10:04;100383.00;;;19.50
64960;BMP180;51487;52.266;10.542;2022-08-19T10:12:32;100381.00;;;19.70
64960;BMP180;51487;52.266;10.542;2022-08-19T10:14:59;100380.00;;;19.60
64960;BMP180;51487;52.266;10.542;2022-08-19T10:17:25;100378.00;;;19.50
64960;BMP180;51487;52.266;10.542;2022-08-19T10:19:51;100379.00;;;19.60
64960;BMP180;51487;52.266;10.542;2022-08-19T10:22:18;100370.00;;;19.50
64960;BMP180;51487;52.266;10.542;2022-08-19T10:24:47;100373.00;;;19.50
64960;BMP180;51487;52.266;10.542;2022-08-19T10:27:12;100362.00;;;19.70
64960;BMP180;51487;52.266;10.542;2022-08-19T10:29:39;100351.00;;;20.10
64960;BMP180;51487;52.266;10.542;2022-08-19T10:32:07;100356.00;;;19.80
64960;BMP180;51487;52.266;10.542;2022-08-19T10:34:35;100353.00;;;19.80
64960;BMP180;51487;52.266;10.542;2022-08-19T10:37:03;100356.00;;;19.50
64960;BMP180;51487;52.266;10.542;2022-08-19T10:39:35;100361.00;;;19.70
64960;BMP180;51487;52.266;10.542;2022-08-19T10:42:06;100367.00;;;19.80
64960;BMP180;51487;52.266;10.542;2022-08-19T10:44:32;100359.00;;;20.20
64960;BMP180;51487;52.266;10.542;2022-08-19T10:47:02;100358.00;;;19.70
64960;BMP180;51487;52.266;10.542;2022-08-19T10:49:28;100358.00;;;20.00
64960;BMP180;51487;52.266;10.542;2022-08-19T10:51:55;100346.00;;;20.00
64960;BMP180;51487;52.266;10.542;2022-08-19T10:54:40;100350.00;;;20.10
64960;BMP180;51487;52.266;10.542;2022-08-19T10:57:24;100344.00;;;20.70
64960;BMP180;51487;52.266;10.542;2022-08-19T10:59:55;100335.00;;;20.60
64960;BMP180;51487;52.266;10.542;2022-08-19T11:02:21;100330.00;;;20.30
64960;BMP180;51487;52.266;10.542;2022-08-19T11:04:47;100323.00;;;20.30
64960;BMP180;51487;52.266;10.542;2022-08-19T11:07:14;100320.00;;;20.60
64960;BMP180;51487;52.266;10.542;2022-08-19T11:09:41;100317.00;;;20.80
64960;BMP180;51487;52.266;10.542;2022-08-19T11:12:08;100323.00;;;20.90
64960;BMP180;51487;52.266;10.542;2022-08-19T11:14:35;100324.00;;;20.90
64960;BMP180;51487;52.266;10.542;2022-08-19T11:17:03;100322.00;;;20.70
64960;BMP180;51487;52.266;10.542;2022-08-19T11:19:29;100330.00;;;20.40
64960;BMP180;51487;52.266;10.542;2022-08-19T11:21:56;100319.00;;;20.80
64960;BMP180;51487;52.266;10.542;2022-08-19T11:24:24;100322.00;;;20.80
64960;BMP180;51487;52.266;10.542;2022-08-19T11:26:53;100316.00;;;20.90
64960;BMP180;51487;52.266;10.542;2022-08-19T11:29:25;100317.00;;;20.90
64960;BMP180;51487;52.266;10.542;2022-08-19T11:31:51;100322.00;;;20.70
64960;BMP180;51487;52.266;10.542;2022-08-19T11:34:20;100318.00;;;20.70
64960;BMP180;51487;52.266;10.542;2022-08-19T11:36:48;100317.00;;;20.70
64960;BMP180;51487;52.266;10.542;2022-08-19T11:39:18;100317.00;;;20.80
64960;BMP180;51487;52.266;10.542;2022-08-19T11:41:45;100315.00;;;21.00
64960;BMP180;51487;52.266;10.542;2022-08-19T11:44:12;100318.00;;;21.10
64960;BMP180;51487;52.266;10.542;2022-08-19T11:46:39;100314.00;;;21.00
64960;BMP180;51487;52.266;10.542;2022-08-19T11:49:06;100303.00;;;21.30
64960;BMP180;51487;52.266;10.542;2022-08-19T11:51:33;100318.00;;;21.20
64960;BMP180;51487;52.266;10.542;2022-08-19T11:53:59;100318.00;;;21.30
64960;BMP180;51487;52.266;10.542;2022-08-19T11:56:26;100333.00;;;21.20
64960;BMP180;51487;52.266;10.542;2022-08-19T11:58:53;100325.00;;;21.00
64960;BMP180;51487;52.266;10.542;2022-08-19T12:01:22;100336.00;;;21.20
64960;BMP180;51487;52.266;10.542;2022-08-19T12:03:49;100322.00;;;21.10
64960;BMP180;51487;52.266;10.542;2022-08-19T12:06:20;100318.00;;;20.90
64960;BMP180;51487;52.266;10.542;2022-08-19T12:08:51;100317.00;;;21.20
64960;BMP180;51487;52.266;10.542;2022-08-19T12:11:17;100314.00;;;21.30
64960;BMP180;51487;52.266;10.542;2022-08-19T12:13:43;100310.00;;;21.20
64960;BMP180;51487;52.266;10.542;2022-08-19T12:16:14;100311.00;;;21.00
64960;BMP180;51487;52.266;10.542;2022-08-19T12:18:42;100313.00;;;21.20
64960;BMP180;51487;52.266;10.542;2022-08-19T12:21:12;100315.00;;;21.50
64960;BMP180;51487;52.266;10.542;2022-08-19T12:23:40;100313.00;;;21.40
64960;BMP180;51487;52.266;10.542;2022-08-19T12:26:06;100308.00;;;21.80
64960;BMP180;51487;52.266;10.542;2022-08-19T12:28:32;100319.00;;;21.70
64960;BMP180;51487;52.266;10.542;2022-08-19T12:30:58;100312.00;;;21.80
64960;BMP180;51487;52.266;10.542;2022-08-19T12:33:23;100310.00;;;21.70
64960;BMP180;51487;52.266;10.542;2022-08-19T12:35:52;100313.00;;;21.70
64960;BMP180;51487;52.266;10.542;2022-08-19T12:38:18;100318.00;;;21.60
64960;BMP180;51487;52.266;10.542;2022-08-19T12:40:48;100307.00;;;21.80
64960;BMP180;51487;52.266;10.542;2022-08-19T12:43:15;100298.00;;;21.90
64960;BMP180;51487;52.266;10.542;2022-08-19T12:45:41;100308.00;;;22.10
64960;BMP180;51487;52.266;10.542;2022-08-19T12:48:10;100314.00;;;22.10
64960;BMP180;51487;52.266;10.542;2022-08-19T12:50:39;100322.00;;;21.90
64960;BMP180;51487;52.266;10.542;2022-08-19T12:53:05;100315.00;;;22.10
64960;BMP180;51487;52.266;10.542;2022-08-19T12:55:31;100302.00;;;22.00
64960;BMP180;51487;52.266;10.542;2022-08-19T12:57:57;100309.00;;;22.00
64960;BMP180;51487;52.266;10.542;2022-08-19T13:00:23;100304.00;;;22.30
64960;BMP180;51487;52.266;10.542;2022-08-19T13:02:51;100305.00;;;22.10
64960;BMP180;51487;52.266;10.542;2022-08-19T13:05:21;100309.00;;;22.20
64960;BMP180;51487;52.266;10.542;2022-08-19T13:07:51;100312.00;;;22.20
64960;BMP180;51487;52.266;10.542;2022-08-19T13:10:20;100314.00;;;22.10
64960;BMP180;51487;52.266;10.542;2022-08-19T13:12:48;100315.00;;;22.00
64960;BMP180;51487;52.266;10.542;2022-08-19T13:15:18;100304.00;;;21.90
64960;BMP180;51487;52.266;10.542;2022-08-19T13:17:49;100311.00;;;21.90
64960;BMP180;51487;52.266;10.542;2022-08-19T13:20:17;100309.00;;;22.10
64960;BMP180;51487;52.266;10.542;2022-08-19T13:22:45;100312.00;;;22.20
64960;BMP180;51487;52.266;10.542;2022-08-19T13:25:12;100306.00;;;22.20
64960;BMP180;51487;52.266;10.542;2022-08-19T13:27:39;100302.00;;;22.30
64960;BMP180;51487;52.266;10.542;2022-08-19T13:30:08;100305.00;;;22.30
64960;BMP180;51487;52.266;10.542;2022-08-19T13:32:54;100301.00;;;22.40
64960;BMP180;51487;52.266;10.542;2022-08-19T13:38:22;100295.00;;;22.60
64960;BMP180;51487;52.266;10.542;2022-08-19T13:40:50;100290.00;;;22.70
64960;BMP180;51487;52.266;10.542;2022-08-19T13:43:18;100288.00;;;23.00
64960;BMP180;51487;52.266;10.542;2022-08-19T13:45:47;100289.00;;;23.00
64960;BMP180;51487;52.266;10.542;2022-08-19T13:48:13;100287.00;;;23.20
64960;BMP180;51487;52.266;10.542;2022-08-19T13:50:44;100287.00;;;23.20
64960;BMP180;51487;52.266;10.542;2022-08-19T13:53:11;100294.00;;;23.20
64960;BMP180;51487;52.266;10.542;2022-08-19T13:55:39;100293.00;;;22.70
64960;BMP180;51487;52.266;10.542;2022-08-19T13:58:05;100294.00;;;22.80
64960;BMP180;51487;52.266;10.542;2022-08-19T14:00:34;100287.00;;;22.60
64960;BMP180;51487;52.266;10.542;2022-08-19T14:03:02;100288.00;;;22.80
64960;BMP180;51487;52.266;10.542;2022-08-19T14:05:30;100285.00;;;22.90
64960;BMP180;51487;52.266;10.542;2022-08-19T14:07:56;100288.00;;;22.80